sensor_id;sensor_type;location;lat;lon;timestamp;pressure;altitude;pressure_sealevel;temperature
33267;BMP180;19638;49.080;11.896;2024-01-06T00:03:15;95036.00;;;5.70
33267;BMP180;19638;49.080;11.896;2024-01-06T00:07:18;95041.00;;;5.80
33267;BMP180;19638;49.080;11.896;2024-01-06T00:11:23;95038.00;;;5.80
33267;BMP180;19638;49.080;11.896;2024-01-06T00:15:26;95036.00;;;5.80
33267;BMP180;19638;49.080;11.896;2024-01-06T00:19:32;95040.00;;;5.90
33267;BMP180;19638;49.080;11.896;2024-01-06T00:23:35;95042.00;;;5.90
33267;BMP180;19638;49.080;11.896;2024-01-06T00:27:39;95029.00;;;5.80
33267;BMP180;19638;49.080;11.896;2024-01-06T00:31:42;95028.00;;;5.80
33267;BMP180;19638;49.080;11.896;2024-01-06T00:35:46;95027.00;;;5.80
33267;BMP180;19638;49.080;11.896;2024-01-06T00:39:49;95041.00;;;5.80
33267;BMP180;19638;49.080;11.896;2024-01-06T00:43:54;95035.00;;;5.90
33267;BMP180;19638;49.080;11.896;2024-01-06T00:47:57;95039.00;;;5.90
33267;BMP180;19638;49.080;11.896;2024-01-06T00:52:00;95032.00;;;5.90
33267;BMP180;19638;49.080;11.896;2024-01-06T00:56:04;95037.00;;;5.90
33267;BMP180;19638;49.080;11.896;2024-01-06T01:00:09;95044.00;;;5.90
33267;BMP180;19638;49.080;11.896;2024-01-06T01:04:13;95046.00;;;5.90
33267;BMP180;19638;49.080;11.896;2024-01-06T01:08:16;95046.00;;;5.90
33267;BMP180;19638;49.080;11.896;2024-01-06T01:12:19;95048.00;;;6.00
33267;BMP180;19638;49.080;11.896;2024-01-06T01:16:23;95057.00;;;6.00
33267;BMP180;19638;49.080;11.896;2024-01-06T01:20:27;95056.00;;;6.00
33267;BMP180;19638;49.080;11.896;2024-01-06T01:24:30;95053.00;;;5.90
33267;BMP180;19638;49.080;11.896;2024-01-06T01:28:33;95056.00;;;5.90
33267;BMP180;19638;49.080;11.896;2024-01-06T01:32:38;95054.00;;;5.90
33267;BMP180;19638;49.080;11.896;2024-01-06T01:36:41;95049.00;;;6.00
33267;BMP180;19638;49.080;11.896;2024-01-06T01:40:44;95057.00;;;6.00
33267;BMP180;19638;49.080;11.896;2024-01-06T01:44:47;95044.00;;;5.90
33267;BMP180;19638;49.080;11.896;2024-01-06T01:48:52;95045.00;;;6.00
33267;BMP180;19638;49.080;11.896;2024-01-06T01:52:59;95041.00;;;5.90
33267;BMP180;19638;49.080;11.896;2024-01-06T01:57:03;95044.00;;;5.90
33267;BMP180;19638;49.080;11.896;2024-01-06T02:01:06;95038.00;;;5.90
33267;BMP180;19638;49.080;11.896;2024-01-06T02:05:11;95034.00;;;5.90
33267;BMP180;19638;49.080;11.896;2024-01-06T02:09:15;95033.00;;;5.90
33267;BMP180;19638;49.080;11.896;2024-01-06T02:13:19;95026.00;;;5.90
33267;BMP180;19638;49.080;11.896;2024-01-06T02:17:22;95032.00;;;5.90
33267;BMP180;19638;49.080;11.896;2024-01-06T02:21:27;95041.00;;;5.90
33267;BMP180;19638;49.080;11.896;2024-01-06T02:25:32;95033.00;;;5.90
33267;BMP180;19638;49.080;11.896;2024-01-06T02:29:36;95038.00;;;5.90
33267;BMP180;19638;49.080;11.896;2024-01-06T02:33:39;95044.00;;;5.80
33267;BMP180;19638;49.080;11.896;2024-01-06T02:37:43;95044.00;;;5.80
33267;BMP180;19638;49.080;11.896;2024-01-06T02:41:47;95040.00;;;5.70
33267;BMP180;19638;49.080;11.896;2024-01-06T02:45:50;95041.00;;;5.70
33267;BMP180;19638;49.080;11.896;2024-01-06T02:49:53;95034.00;;;5.70
33267;BMP180;19638;49.080;11.896;2024-01-06T02:53:56;95049.00;;;5.70
33267;BMP180;19638;49.080;11.896;2024-01-06T02:58:01;95044.00;;;5.70
33267;BMP180;19638;49.080;11.896;2024-01-06T03:02:04;95038.00;;;5.70
33267;BMP180;19638;49.080;11.896;2024-01-06T03:06:07;95052.00;;;5.70
33267;BMP180;19638;49.080;11.896;2024-01-06T03:10:10;95053.00;;;5.70
33267;BMP180;19638;49.080;11.896;2024-01-06T03:14:15;95046.00;;;5.70
33267;BMP180;19638;49.080;11.896;2024-01-06T03:18:18;95047.00;;;5.70
33267;BMP180;19638;49.080;11.896;2024-01-06T03:22:21;95042.00;;;5.70
33267;BMP180;19638;49.080;11.896;2024-01-06T03:26:24;95045.00;;;5.70
33267;BMP180;19638;49.080;11.896;2024-01-06T03:30:29;95050.00;;;5.70
33267;BMP180;19638;49.080;11.896;2024-01-06T03:34:32;95046.00;;;5.70
33267;BMP180;19638;49.080;11.896;2024-01-06T03:38:35;95054.00;;;5.70
33267;BMP180;19638;49.080;11.896;2024-01-06T03:42:38;95051.00;;;5.70
33267;BMP180;19638;49.080;11.896;2024-01-06T03:46:43;95061.00;;;5.70
33267;BMP180;19638;49.080;11.896;2024-01-06T03:50:46;95063.00;;;5.70
33267;BMP180;19638;49.080;11.896;2024-01-06T03:54:49;95060.00;;;5.70
33267;BMP180;19638;49.080;11.896;2024-01-06T03:58:52;95063.00;;;5.60
33267;BMP180;19638;49.080;11.896;2024-01-06T04:02:57;95060.00;;;5.70
33267;BMP180;19638;49.080;11.896;2024-01-06T04:07:00;95074.00;;;5.70
33267;BMP180;19638;49.080;11.896;2024-01-06T04:11:06;95079.00;;;5.60
33267;BMP180;19638;49.080;11.896;2024-01-06T04:15:10;95088.00;;;5.70
33267;BMP180;19638;49.080;11.896;2024-01-06T04:19:14;95092.00;;;5.60
33267;BMP180;19638;49.080;11.896;2024-01-06T04:23:18;95095.00;;;5.60
33267;BMP180;19638;49.080;11.896;2024-01-06T04:27:24;95095.00;;;5.60
33267;BMP180;19638;49.080;11.896;2024-01-06T04:31:27;95101.00;;;5.60
33267;BMP180;19638;49.080;11.896;2024-01-06T04:35:32;95095.00;;;5.70
33267;BMP180;19638;49.080;11.896;2024-01-06T04:39:35;95100.00;;;5.80
33267;BMP180;19638;49.080;11.896;2024-01-06T04:43:38;95101.00;;;5.80
33267;BMP180;19638;49.080;11.896;2024-01-06T04:47:41;95099.00;;;5.90
33267;BMP180;19638;49.080;11.896;2024-01-06T04:51:48;95102.00;;;5.90
33267;BMP180;19638;49.080;11.896;2024-01-06T04:55:51;95109.00;;;6.00
33267;BMP180;19638;49.080;11.896;2024-01-06T04:59:54;95109.00;;;6.00
33267;BMP180;19638;49.080;11.896;2024-01-06T05:03:58;95116.00;;;6.00
33267;BMP180;19638;49.080;11.896;2024-01-06T05:08:03;95112.00;;;6.00
33267;BMP180;19638;49.080;11.896;2024-01-06T05:12:09;95116.00;;;6.00
33267;BMP180;19638;49.080;11.896;2024-01-06T05:16:12;95122.00;;;6.00
33267;BMP180;19638;49.080;11.896;2024-01-06T05:20:15;95119.00;;;5.90
33267;BMP180;19638;49.080;11.896;2024-01-06T05:24:20;95116.00;;;6.00
33267;BMP180;19638;49.080;11.896;2024-01-06T05:28:23;95113.00;;;6.00
33267;BMP180;19638;49.080;11.896;2024-01-06T05:32:26;95117.00;;;5.90
33267;BMP180;19638;49.080;11.896;2024-01-06T05:36:31;95128.00;;;5.90
33267;BMP180;19638;49.080;11.896;2024-01-06T05:40:36;95126.00;;;5.80
33267;BMP180;19638;49.080;11.896;2024-01-06T05:44:39;95131.00;;;5.80
33267;BMP180;19638;49.080;11.896;2024-01-06T05:48:42;95115.00;;;5.70
33267;BMP180;19638;49.080;11.896;2024-01-06T05:52:47;95110.00;;;5.70
33267;BMP180;19638;49.080;11.896;2024-01-06T05:56:52;95111.00;;;5.70
33267;BMP180;19638;49.080;11.896;2024-01-06T06:00:55;95120.00;;;5.70
33267;BMP180;19638;49.080;11.896;2024-01-06T06:04:59;95127.00;;;5.70
33267;BMP180;19638;49.080;11.896;2024-01-06T06:09:03;95131.00;;;5.70
33267;BMP180;19638;49.080;11.896;2024-01-06T06:13:10;95133.00;;;5.70
33267;BMP180;19638;49.080;11.896;2024-01-06T06:17:18;95140.00;;;5.70
33267;BMP180;19638;49.080;11.896;2024-01-06T06:21:21;95152.00;;;5.60
33267;BMP180;19638;49.080;11.896;2024-01-06T06:25:24;95152.00;;;5.50
33267;BMP180;19638;49.080;11.896;2024-01-06T06:29:29;95154.00;;;5.40
33267;BMP180;19638;49.080;11.896;2024-01-06T06:33:32;95158.00;;;5.30
33267;BMP180;19638;49.080;11.896;2024-01-06T06:37:36;95172.00;;;5.20
33267;BMP180;19638;49.080;11.896;2024-01-06T06:41:39;95178.00;;;5.20
33267;BMP180;19638;49.080;11.896;2024-01-06T06:45:44;95175.00;;;5.10
33267;BMP180;19638;49.080;11.896;2024-01-06T06:49:49;95191.00;;;5.00
33267;BMP180;19638;49.080;11.896;2024-01-06T06:53:57;95215.00;;;4.90
33267;BMP180;19638;49.080;11.896;2024-01-06T06:58:01;95218.00;;;4.90
33267;BMP180;19638;49.080;11.896;2024-01-06T07:02:06;95211.00;;;5.00
33267;BMP180;19638;49.080;11.896;2024-01-06T07:06:11;95231.00;;;5.10
33267;BMP180;19638;49.080;11.896;2024-01-06T07:10:17;95239.00;;;5.10
33267;BMP180;19638;49.080;11.896;2024-01-06T07:14:20;95237.00;;;5.20
33267;BMP180;19638;49.080;11.896;2024-01-06T07:18:25;95231.00;;;5.20
33267;BMP180;19638;49.080;11.896;2024-01-06T07:22:30;95243.00;;;5.20
33267;BMP180;19638;49.080;11.896;2024-01-06T07:26:33;95252.00;;;5.30
33267;BMP180;19638;49.080;11.896;2024-01-06T07:30:38;95254.00;;;5.30
33267;BMP180;19638;49.080;11.896;2024-01-06T07:34:42;95256.00;;;5.30
33267;BMP180;19638;49.080;11.896;2024-01-06T07:38:48;95254.00;;;5.30
33267;BMP180;19638;49.080;11.896;2024-01-06T07:42:57;95256.00;;;5.30
33267;BMP180;19638;49.080;11.896;2024-01-06T07:47:01;95253.00;;;5.40
33267;BMP180;19638;49.080;11.896;2024-01-06T07:51:08;95252.00;;;5.40
33267;BMP180;19638;49.080;11.896;2024-01-06T07:55:11;95253.00;;;5.40
33267;BMP180;19638;49.080;11.896;2024-01-06T07:59:14;95264.00;;;5.40
33267;BMP180;19638;49.080;11.896;2024-01-06T08:03:17;95275.00;;;5.40
33267;BMP180;19638;49.080;11.896;2024-01-06T08:07:22;95274.00;;;5.40
33267;BMP180;19638;49.080;11.896;2024-01-06T08:11:25;95275.00;;;5.40
33267;BMP180;19638;49.080;11.896;2024-01-06T08:15:28;95281.00;;;5.50
33267;BMP180;19638;49.080;11.896;2024-01-06T08:19:34;95283.00;;;5.50
33267;BMP180;19638;49.080;11.896;2024-01-06T08:23:39;95282.00;;;5.50
33267;BMP180;19638;49.080;11.896;2024-01-06T08:27:42;95279.00;;;5.50
33267;BMP180;19638;49.080;11.896;2024-01-06T08:31:45;95284.00;;;5.60
33267;BMP180;19638;49.080;11.896;2024-01-06T08:35:49;95287.00;;;5.70
33267;BMP180;19638;49.080;11.896;2024-01-06T08:39:54;95288.00;;;5.70
33267;BMP180;19638;49.080;11.896;2024-01-06T08:43:57;95296.00;;;5.70
33267;BMP180;19638;49.080;11.896;2024-01-06T08:48:00;95293.00;;;5.70
33267;BMP180;19638;49.080;11.896;2024-01-06T08:52:04;95304.00;;;5.80
33267;BMP180;19638;49.080;11.896;2024-01-06T08:56:09;95296.00;;;5.80
33267;BMP180;19638;49.080;11.896;2024-01-06T09:00:13;95309.00;;;5.90
33267;BMP180;19638;49.080;11.896;2024-01-06T09:04:16;95304.00;;;6.00
33267;BMP180;19638;49.080;11.896;2024-01-06T09:08:20;95316.00;;;6.00
33267;BMP180;19638;49.080;11.896;2024-01-06T09:12:24;95313.00;;;6.00
33267;BMP180;19638;49.080;11.896;2024-01-06T09:16:27;95332.00;;;6.00
33267;BMP180;19638;49.080;11.896;2024-01-06T09:20:30;95330.00;;;5.90
33267;BMP180;19638;49.080;11.896;2024-01-06T09:24:33;95340.00;;;5.90
33267;BMP180;19638;49.080;11.896;2024-01-06T09:28:38;95338.00;;;5.90
33267;BMP180;19638;49.080;11.896;2024-01-06T09:32:42;95334.00;;;5.90
33267;BMP180;19638;49.080;11.896;2024-01-06T09:36:45;95335.00;;;5.90
33267;BMP180;19638;49.080;11.896;2024-01-06T09:40:49;95338.00;;;5.80
33267;BMP180;19638;49.080;11.896;2024-01-06T09:44:53;95345.00;;;5.90
33267;BMP180;19638;49.080;11.896;2024-01-06T09:48:56;95339.00;;;6.10
33267;BMP180;19638;49.080;11.896;2024-01-06T09:53:01;95342.00;;;6.20
33267;BMP180;19638;49.080;11.896;2024-01-06T09:57:07;95349.00;;;6.30
33267;BMP180;19638;49.080;11.896;2024-01-06T10:01:12;95337.00;;;6.30
33267;BMP180;19638;49.080;11.896;2024-01-06T10:05:17;95341.00;;;6.40
33267;BMP180;19638;49.080;11.896;2024-01-06T10:09:26;95341.00;;;6.40
33267;BMP180;19638;49.080;11.896;2024-01-06T10:13:30;95346.00;;;6.50
33267;BMP180;19638;49.080;11.896;2024-01-06T10:17:36;95336.00;;;6.60
33267;BMP180;19638;49.080;11.896;2024-01-06T10:21:39;95347.00;;;6.60
33267;BMP180;19638;49.080;11.896;2024-01-06T10:25:43;95337.00;;;6.70
33267;BMP180;19638;49.080;11.896;2024-01-06T10:29:46;95340.00;;;6.80
33267;BMP180;19638;49.080;11.896;2024-01-06T10:33:51;95342.00;;;6.90
33267;BMP180;19638;49.080;11.896;2024-01-06T10:37:54;95355.00;;;6.80
33267;BMP180;19638;49.080;11.896;2024-01-06T10:41:58;95354.00;;;6.80
33267;BMP180;19638;49.080;11.896;2024-01-06T10:46:02;95361.00;;;6.80
33267;BMP180;19638;49.080;11.896;2024-01-06T10:50:09;95363.00;;;7.00
33267;BMP180;19638;49.080;11.896;2024-01-06T10:54:13;95361.00;;;7.00
33267;BMP180;19638;49.080;11.896;2024-01-06T10:58:17;95359.00;;;7.00
33267;BMP180;19638;49.080;11.896;2024-01-06T11:02:21;95358.00;;;7.00
33267;BMP180;19638;49.080;11.896;2024-01-06T11:06:28;95352.00;;;6.90
33267;BMP180;19638;49.080;11.896;2024-01-06T11:10:34;95345.00;;;6.90
33267;BMP180;19638;49.080;11.896;2024-01-06T11:14:38;95334.00;;;6.80
33267;BMP180;19638;49.080;11.896;2024-01-06T11:18:41;95330.00;;;6.80
33267;BMP180;19638;49.080;11.896;2024-01-06T11:22:46;95329.00;;;6.80
33267;BMP180;19638;49.080;11.896;2024-01-06T11:26:50;95319.00;;;6.80
33267;BMP180;19638;49.080;11.896;2024-01-06T11:31:05;95326.00;;;7.00
33267;BMP180;19638;49.080;11.896;2024-01-06T11:35:10;95319.00;;;7.00
33267;BMP180;19638;49.080;11.896;2024-01-06T11:39:37;95323.00;;;6.90
33267;BMP180;19638;49.080;11.896;2024-01-06T11:43:42;95322.00;;;6.90
33267;BMP180;19638;49.080;11.896;2024-01-06T11:47:48;95320.00;;;6.90
33267;BMP180;19638;49.080;11.896;2024-01-06T11:51:51;95320.00;;;7.00
33267;BMP180;19638;49.080;11.896;2024-01-06T11:55:56;95322.00;;;7.00
33267;BMP180;19638;49.080;11.896;2024-01-06T11:59:59;95330.00;;;7.00
33267;BMP180;19638;49.080;11.896;2024-01-06T12:04:03;95324.00;;;6.90
33267;BMP180;19638;49.080;11.896;2024-01-06T12:08:08;95324.00;;;6.90
33267;BMP180;19638;49.080;11.896;2024-01-06T12:12:15;95321.00;;;6.80
33267;BMP180;19638;49.080;11.896;2024-01-06T12:16:18;95324.00;;;6.70
33267;BMP180;19638;49.080;11.896;2024-01-06T12:20:22;95319.00;;;6.70
33267;BMP180;19638;49.080;11.896;2024-01-06T12:24:27;95321.00;;;6.60
33267;BMP180;19638;49.080;11.896;2024-01-06T12:28:37;95318.00;;;6.60
33267;BMP180;19638;49.080;11.896;2024-01-06T12:32:40;95320.00;;;6.70
33267;BMP180;19638;49.080;11.896;2024-01-06T12:36:44;95313.00;;;6.80
33267;BMP180;19638;49.080;11.896;2024-01-06T12:40:49;95308.00;;;6.80
33267;BMP180;19638;49.080;11.896;2024-01-06T12:44:53;95304.00;;;6.80
33267;BMP180;19638;49.080;11.896;2024-01-06T12:48:56;95313.00;;;6.80
33267;BMP180;19638;49.080;11.896;2024-01-06T12:53:00;95305.00;;;6.80
33267;BMP180;19638;49.080;11.896;2024-01-06T12:57:04;95305.00;;;6.80
33267;BMP180;19638;49.080;11.896;2024-01-06T13:01:08;95307.00;;;6.70
33267;BMP180;19638;49.080;11.896;2024-01-06T13:05:12;95304.00;;;6.70
33267;BMP180;19638;49.080;11.896;2024-01-06T13:09:15;95298.00;;;6.60
33267;BMP180;19638;49.080;11.896;2024-01-06T13:13:19;95306.00;;;6.60
33267;BMP180;19638;49.080;11.896;2024-01-06T13:17:23;95305.00;;;6.60
33267;BMP180;19638;49.080;11.896;2024-01-06T13:21:27;95311.00;;;6.60
33267;BMP180;19638;49.080;11.896;2024-01-06T13:25:30;95308.00;;;6.60
33267;BMP180;19638;49.080;11.896;2024-01-06T13:29:34;95307.00;;;6.50
33267;BMP180;19638;49.080;11.896;2024-01-06T13:33:39;95319.00;;;6.50
33267;BMP180;19638;49.080;11.896;2024-01-06T13:37:43;95324.00;;;6.40
33267;BMP180;19638;49.080;11.896;2024-01-06T13:41:48;95325.00;;;6.40
33267;BMP180;19638;49.080;11.896;2024-01-06T13:45:51;95329.00;;;6.30
33267;BMP180;19638;49.080;11.896;2024-01-06T13:49:56;95326.00;;;6.30
33267;BMP180;19638;49.080;11.896;2024-01-06T13:54:00;95330.00;;;6.20
33267;BMP180;19638;49.080;11.896;2024-01-06T13:58:03;95322.00;;;6.20
33267;BMP180;19638;49.080;11.896;2024-01-06T14:02:06;95333.00;;;6.10
33267;BMP180;19638;49.080;11.896;2024-01-06T14:06:11;95333.00;;;6.10
33267;BMP180;19638;49.080;11.896;2024-01-06T14:10:14;95333.00;;;6.10
33267;BMP180;19638;49.080;11.896;2024-01-06T14:14:17;95333.00;;;6.10
33267;BMP180;19638;49.080;11.896;2024-01-06T14:18:22;95339.00;;;6.10
33267;BMP180;19638;49.080;11.896;2024-01-06T14:22:26;95338.00;;;6.10
33267;BMP180;19638;49.080;11.896;2024-01-06T14:26:30;95348.00;;;6.10
33267;BMP180;19638;49.080;11.896;2024-01-06T14:30:33;95344.00;;;6.10
33267;BMP180;19638;49.080;11.896;2024-01-06T14:34:36;95352.00;;;6.10
33267;BMP180;19638;49.080;11.896;2024-01-06T14:38:41;95344.00;;;6.10
33267;BMP180;19638;49.080;11.896;2024-01-06T14:42:44;95349.00;;;6.00
33267;BMP180;19638;49.080;11.896;2024-01-06T14:46:47;95359.00;;;6.00
33267;BMP180;19638;49.080;11.896;2024-01-06T14:50:52;95365.00;;;5.90
33267;BMP180;19638;49.080;11.896;2024-01-06T14:54:57;95364.00;;;5.90
33267;BMP180;19638;49.080;11.896;2024-01-06T14:59:00;95371.00;;;5.90
33267;BMP180;19638;49.080;11.896;2024-01-06T15:03:04;95370.00;;;5.90
33267;BMP180;19638;49.080;11.896;2024-01-06T15:07:07;95367.00;;;5.80
33267;BMP180;19638;49.080;11.896;2024-01-06T15:11:12;95379.00;;;5.80
33267;BMP180;19638;49.080;11.896;2024-01-06T15:15:15;95378.00;;;5.80
33267;BMP180;19638;49.080;11.896;2024-01-06T15:19:18;95380.00;;;5.70
33267;BMP180;19638;49.080;11.896;2024-01-06T15:23:21;95377.00;;;5.70
33267;BMP180;19638;49.080;11.896;2024-01-06T15:27:26;95387.00;;;5.70
33267;BMP180;19638;49.080;11.896;2024-01-06T15:31:30;95380.00;;;5.60
33267;BMP180;19638;49.080;11.896;2024-01-06T15:35:33;95383.00;;;5.60
33267;BMP180;19638;49.080;11.896;2024-01-06T15:39:36;95384.00;;;5.50
33267;BMP180;19638;49.080;11.896;2024-01-06T15:43:41;95387.00;;;5.50
33267;BMP180;19638;49.080;11.896;2024-01-06T15:47:44;95388.00;;;5.50
33267;BMP180;19638;49.080;11.896;2024-01-06T15:51:47;95389.00;;;5.50
33267;BMP180;19638;49.080;11.896;2024-01-06T15:55:51;95392.00;;;5.50
33267;BMP180;19638;49.080;11.896;2024-01-06T15:59:55;95388.00;;;5.50
33267;BMP180;19638;49.080;11.896;2024-01-06T16:03:59;95389.00;;;5.50
33267;BMP180;19638;49.080;11.896;2024-01-06T16:08:06;95382.00;;;5.50
33267;BMP180;19638;49.080;11.896;2024-01-06T16:12:11;95396.00;;;5.40
33267;BMP180;19638;49.080;11.896;2024-01-06T16:16:16;95396.00;;;5.40
33267;BMP180;19638;49.080;11.896;2024-01-06T16:20:19;95401.00;;;5.40
33267;BMP180;19638;49.080;11.896;2024-01-06T16:24:23;95394.00;;;5.50
33267;BMP180;19638;49.080;11.896;2024-01-06T16:28:28;95393.00;;;5.50
33267;BMP180;19638;49.080;11.896;2024-01-06T16:32:32;95397.00;;;5.50
33267;BMP180;19638;49.080;11.896;2024-01-06T16:36:36;95390.00;;;5.50
33267;BMP180;19638;49.080;11.896;2024-01-06T16:40:39;95410.00;;;5.50
33267;BMP180;19638;49.080;11.896;2024-01-06T16:44:42;95400.00;;;5.40
33267;BMP180;19638;49.080;11.896;2024-01-06T16:48:47;95406.00;;;5.40
33267;BMP180;19638;49.080;11.896;2024-01-06T16:52:50;95407.00;;;5.30
33267;BMP180;19638;49.080;11.896;2024-01-06T16:56:54;95416.00;;;5.30
33267;BMP180;19638;49.080;11.896;2024-01-06T17:01:01;95407.00;;;5.30
33267;BMP180;19638;49.080;11.896;2024-01-06T17:05:07;95414.00;;;5.20
33267;BMP180;19638;49.080;11.896;2024-01-06T17:09:11;95407.00;;;5.20
33267;BMP180;19638;49.080;11.896;2024-01-06T17:13:14;95412.00;;;5.20
33267;BMP180;19638;49.080;11.896;2024-01-06T17:17:18;95405.00;;;5.10
33267;BMP180;19638;49.080;11.896;2024-01-06T17:21:23;95416.00;;;5.10
33267;BMP180;19638;49.080;11.896;2024-01-06T17:25:26;95419.00;;;5.10
33267;BMP180;19638;49.080;11.896;2024-01-06T17:29:29;95413.00;;;5.10
33267;BMP180;19638;49.080;11.896;2024-01-06T17:33:33;95428.00;;;5.10
33267;BMP180;19638;49.080;11.896;2024-01-06T17:37:37;95426.00;;;5.10
33267;BMP180;19638;49.080;11.896;2024-01-06T17:41:40;95437.00;;;5.10
33267;BMP180;19638;49.080;11.896;2024-01-06T17:45:57;95428.00;;;5.10
33267;BMP180;19638;49.080;11.896;2024-01-06T17:50:01;95438.00;;;5.10
33267;BMP180;19638;49.080;11.896;2024-01-06T17:54:05;95431.00;;;5.10
33267;BMP180;19638;49.080;11.896;2024-01-06T17:58:09;95431.00;;;5.10
33267;BMP180;19638;49.080;11.896;2024-01-06T18:02:13;95438.00;;;5.10
33267;BMP180;19638;49.080;11.896;2024-01-06T18:06:16;95440.00;;;5.10
33267;BMP180;19638;49.080;11.896;2024-01-06T18:10:22;95438.00;;;5.10
33267;BMP180;19638;49.080;11.896;2024-01-06T18:14:25;95440.00;;;5.10
33267;BMP180;19638;49.080;11.896;2024-01-06T18:18:32;95435.00;;;5.10
33267;BMP180;19638;49.080;11.896;2024-01-06T18:22:36;95437.00;;;5.10
33267;BMP180;19638;49.080;11.896;2024-01-06T18:26:41;95441.00;;;5.00
33267;BMP180;19638;49.080;11.896;2024-01-06T18:30:44;95438.00;;;5.00
33267;BMP180;19638;49.080;11.896;2024-01-06T18:34:47;95438.00;;;5.00
33267;BMP180;19638;49.080;11.896;2024-01-06T18:38:50;95434.00;;;5.00
33267;BMP180;19638;49.080;11.896;2024-01-06T18:42:55;95437.00;;;5.00
33267;BMP180;19638;49.080;11.896;2024-01-06T18:46:58;95444.00;;;5.00
33267;BMP180;19638;49.080;11.896;2024-01-06T18:51:01;95440.00;;;5.00
33267;BMP180;19638;49.080;11.896;2024-01-06T18:55:05;95435.00;;;5.00
33267;BMP180;19638;49.080;11.896;2024-01-06T18:59:10;95434.00;;;5.00
33267;BMP180;19638;49.080;11.896;2024-01-06T19:03:13;95436.00;;;5.00
33267;BMP180;19638;49.080;11.896;2024-01-06T19:07:18;95433.00;;;5.10
33267;BMP180;19638;49.080;11.896;2024-01-06T19:11:21;95436.00;;;5.10
33267;BMP180;19638;49.080;11.896;2024-01-06T19:15:26;95437.00;;;5.10
33267;BMP180;19638;49.080;11.896;2024-01-06T19:19:29;95437.00;;;5.10
33267;BMP180;19638;49.080;11.896;2024-01-06T19:23:32;95440.00;;;5.20
33267;BMP180;19638;49.080;11.896;2024-01-06T19:27:35;95442.00;;;5.20
33267;BMP180;19638;49.080;11.896;2024-01-06T19:31:43;95451.00;;;5.20
33267;BMP180;19638;49.080;11.896;2024-01-06T19:35:46;95437.00;;;5.20
33267;BMP180;19638;49.080;11.896;2024-01-06T19:39:49;95433.00;;;5.20
33267;BMP180;19638;49.080;11.896;2024-01-06T19:43:52;95430.00;;;5.20
33267;BMP180;19638;49.080;11.896;2024-01-06T19:47:57;95435.00;;;5.20
33267;BMP180;19638;49.080;11.896;2024-01-06T19:52:01;95435.00;;;5.10
33267;BMP180;19638;49.080;11.896;2024-01-06T19:56:04;95442.00;;;5.10
33267;BMP180;19638;49.080;11.896;2024-01-06T20:00:08;95437.00;;;5.10
33267;BMP180;19638;49.080;11.896;2024-01-06T20:04:13;95443.00;;;5.10
33267;BMP180;19638;49.080;11.896;2024-01-06T20:08:16;95434.00;;;5.10
33267;BMP180;19638;49.080;11.896;2024-01-06T20:12:19;95435.00;;;5.10
33267;BMP180;19638;49.080;11.896;2024-01-06T20:16:22;95430.00;;;5.10
33267;BMP180;19638;49.080;11.896;2024-01-06T20:20:28;95432.00;;;5.10
33267;BMP180;19638;49.080;11.896;2024-01-06T20:24:31;95430.00;;;5.10
33267;BMP180;19638;49.080;11.896;2024-01-06T20:28:35;95435.00;;;5.10
33267;BMP180;19638;49.080;11.896;2024-01-06T20:32:38;95426.00;;;5.00
33267;BMP180;19638;49.080;11.896;2024-01-06T20:36:43;95432.00;;;5.00
33267;BMP180;19638;49.080;11.896;2024-01-06T20:40:47;95439.00;;;5.00
33267;BMP180;19638;49.080;11.896;2024-01-06T20:44:50;95427.00;;;5.10
33267;BMP180;19638;49.080;11.896;2024-01-06T20:48:53;95426.00;;;5.00
33267;BMP180;19638;49.080;11.896;2024-01-06T20:52:58;95428.00;;;5.00
33267;BMP180;19638;49.080;11.896;2024-01-06T20:57:01;95423.00;;;5.00
33267;BMP180;19638;49.080;11.896;2024-01-06T21:01:04;95420.00;;;5.00
33267;BMP180;19638;49.080;11.896;2024-01-06T21:05:08;95428.00;;;5.00
33267;BMP180;19638;49.080;11.896;2024-01-06T21:09:12;95418.00;;;5.00
33267;BMP180;19638;49.080;11.896;2024-01-06T21:13:15;95413.00;;;5.00
33267;BMP180;19638;49.080;11.896;2024-01-06T21:17:18;95419.00;;;5.00
33267;BMP180;19638;49.080;11.896;2024-01-06T21:21:21;95421.00;;;5.00
33267;BMP180;19638;49.080;11.896;2024-01-06T21:25:27;95417.00;;;5.00
33267;BMP180;19638;49.080;11.896;2024-01-06T21:29:30;95418.00;;;5.00
33267;BMP180;19638;49.080;11.896;2024-01-06T21:33:33;95417.00;;;5.00
33267;BMP180;19638;49.080;11.896;2024-01-06T21:37:37;95419.00;;;5.00
33267;BMP180;19638;49.080;11.896;2024-01-06T21:41:41;95412.00;;;5.00
33267;BMP180;19638;49.080;11.896;2024-01-06T21:45:47;95420.00;;;5.00
33267;BMP180;19638;49.080;11.896;2024-01-06T21:49:50;95421.00;;;5.00
33267;BMP180;19638;49.080;11.896;2024-01-06T21:53:54;95411.00;;;5.00
33267;BMP180;19638;49.080;11.896;2024-01-06T21:57:59;95420.00;;;5.00
33267;BMP180;19638;49.080;11.896;2024-01-06T22:02:02;95424.00;;;5.00
33267;BMP180;19638;49.080;11.896;2024-01-06T22:06:06;95432.00;;;5.00
33267;BMP180;19638;49.080;11.896;2024-01-06T22:10:09;95436.00;;;5.00
33267;BMP180;19638;49.080;11.896;2024-01-06T22:14:14;95433.00;;;5.00
33267;BMP180;19638;49.080;11.896;2024-01-06T22:18:17;95435.00;;;5.00
33267;BMP180;19638;49.080;11.896;2024-01-06T22:22:20;95440.00;;;4.90
33267;BMP180;19638;49.080;11.896;2024-01-06T22:26:25;95435.00;;;4.90
33267;BMP180;19638;49.080;11.896;2024-01-06T22:30:31;95440.00;;;4.90
33267;BMP180;19638;49.080;11.896;2024-01-06T22:34:34;95431.00;;;4.80
33267;BMP180;19638;49.080;11.896;2024-01-06T22:38:38;95427.00;;;4.80
33267;BMP180;19638;49.080;11.896;2024-01-06T22:42:55;95427.00;;;4.80
33267;BMP180;19638;49.080;11.896;2024-01-06T22:47:00;95425.00;;;4.80
33267;BMP180;19638;49.080;11.896;2024-01-06T22:51:03;95425.00;;;4.80
33267;BMP180;19638;49.080;11.896;2024-01-06T22:55:07;95428.00;;;4.80
33267;BMP180;19638;49.080;11.896;2024-01-06T22:59:10;95421.00;;;4.80
33267;BMP180;19638;49.080;11.896;2024-01-06T23:03:14;95427.00;;;4.70
33267;BMP180;19638;49.080;11.896;2024-01-06T23:07:18;95427.00;;;4.70
33267;BMP180;19638;49.080;11.896;2024-01-06T23:11:21;95427.00;;;4.70
33267;BMP180;19638;49.080;11.896;2024-01-06T23:15:24;95424.00;;;4.70
33267;BMP180;19638;49.080;11.896;2024-01-06T23:19:29;95433.00;;;4.70
33267;BMP180;19638;49.080;11.896;2024-01-06T23:23:32;95434.00;;;4.80
33267;BMP180;19638;49.080;11.896;2024-01-06T23:27:35;95434.00;;;4.80